createdAt,value
2018-05-25T00:02:04.091Z,17.00
2018-05-25T00:04:32.552Z,17.00
2018-05-25T00:07:01.007Z,17.00
2018-05-25T00:09:29.452Z,17.00
2018-05-25T00:11:57.900Z,17.00
2018-05-25T00:14:26.345Z,17.00
2018-05-25T00:16:54.812Z,17.00
2018-05-25T00:19:23.254Z,17.00
2018-05-25T00:21:51.709Z,17.00
2018-05-25T00:24:20.924Z,17.00
2018-05-25T00:26:49.376Z,17.00
2018-05-25T00:29:17.826Z,17.00
2018-05-25T00:31:46.277Z,16.90
2018-05-25T00:34:14.735Z,17.00
2018-05-25T00:36:43.185Z,16.90
2018-05-25T00:39:11.637Z,16.90
2018-05-25T00:41:40.100Z,16.90
2018-05-25T00:44:08.552Z,16.90
2018-05-25T00:46:37.772Z,16.90
2018-05-25T00:49:06.212Z,16.90
2018-05-25T00:51:34.655Z,16.90
2018-05-25T00:54:03.108Z,16.80
2018-05-25T00:56:31.563Z,16.90
2018-05-25T00:59:00.002Z,16.90
2018-05-25T01:01:28.444Z,16.90
2018-05-25T01:03:57.679Z,16.90
2018-05-25T01:06:26.132Z,16.90
2018-05-25T01:08:54.583Z,16.90
2018-05-25T01:11:23.237Z,16.90
2018-05-25T01:13:51.740Z,16.90
2018-05-25T01:16:20.217Z,16.90
2018-05-25T01:18:48.676Z,16.90
2018-05-25T01:21:18.669Z,16.90
2018-05-25T01:23:47.121Z,16.90
2018-05-25T01:26:15.588Z,16.90
2018-05-25T01:28:44.044Z,16.90
2018-05-25T01:31:12.516Z,16.90
2018-05-25T01:33:40.967Z,16.90
2018-05-25T01:36:09.440Z,16.90
2018-05-25T01:38:37.892Z,16.80
2018-05-25T01:41:06.351Z,16.80
2018-05-25T01:43:34.800Z,16.80
2018-05-25T01:46:03.252Z,16.80
2018-05-25T01:48:31.464Z,16.80
2018-05-25T01:50:59.916Z,16.80
2018-05-25T01:53:28.804Z,16.80
2018-05-25T01:55:57.255Z,16.80
2018-05-25T01:58:25.707Z,16.80
2018-05-25T02:00:54.164Z,16.70
2018-05-25T02:03:22.607Z,16.70
2018-05-25T02:05:51.055Z,16.70
2018-05-25T02:08:19.500Z,16.70
2018-05-25T02:10:47.951Z,16.70
2018-05-25T02:13:16.412Z,16.70
2018-05-25T02:15:44.904Z,16.70
2018-05-25T02:18:13.372Z,16.70
2018-05-25T02:20:41.822Z,16.70
2018-05-25T02:23:11.038Z,16.70
2018-05-25T02:25:39.500Z,16.70
2018-05-25T02:28:07.949Z,16.70
2018-05-25T02:30:36.400Z,16.70
2018-05-25T02:33:04.847Z,16.70
2018-05-25T02:35:34.078Z,16.70
2018-05-25T02:38:02.546Z,16.70
2018-05-25T02:40:31.001Z,16.70
2018-05-25T02:42:59.439Z,16.70
2018-05-25T02:45:27.898Z,16.70
2018-05-25T02:47:56.344Z,16.70
2018-05-25T02:50:24.797Z,16.70
2018-05-25T02:52:53.248Z,16.70
2018-05-25T02:55:21.711Z,16.70
2018-05-25T02:57:50.927Z,16.60
2018-05-25T03:00:19.375Z,16.60
2018-05-25T03:02:47.870Z,16.60
2018-05-25T03:05:16.333Z,16.60
2018-05-25T03:07:44.455Z,16.60
2018-05-25T03:10:12.895Z,16.60
2018-05-25T03:12:41.340Z,16.60
2018-05-25T03:15:10.607Z,16.50
2018-05-25T03:17:39.064Z,16.50
2018-05-25T03:20:08.286Z,16.50
2018-05-25T03:22:36.732Z,16.40
2018-05-25T03:25:04.861Z,16.40
2018-05-25T03:27:33.816Z,16.40
2018-05-25T03:30:03.023Z,16.30
2018-05-25T03:32:32.234Z,16.30
2018-05-25T03:35:00.691Z,16.30
2018-05-25T03:37:29.942Z,16.30
2018-05-25T03:39:58.390Z,16.30
2018-05-25T03:42:26.836Z,16.30
2018-05-25T03:44:55.288Z,16.30
2018-05-25T03:47:23.760Z,16.30
2018-05-25T03:49:53.120Z,16.30
2018-05-25T03:52:22.357Z,16.30
2018-05-25T03:54:50.813Z,16.20
2018-05-25T03:57:19.698Z,16.30
2018-05-25T03:59:59.331Z,16.30
2018-05-25T04:02:27.837Z,16.30
2018-05-25T04:04:56.279Z,16.40
2018-05-25T04:07:24.731Z,16.40
2018-05-25T04:09:53.926Z,16.40
2018-05-25T04:12:22.384Z,16.40
2018-05-25T04:14:50.847Z,16.50
2018-05-25T04:17:19.300Z,16.50
2018-05-25T04:19:47.751Z,16.50
2018-05-25T04:22:16.931Z,16.50
2018-05-25T04:24:45.383Z,16.50
2018-05-25T04:27:13.839Z,16.60
2018-05-25T04:29:42.291Z,16.50
2018-05-25T04:32:10.764Z,16.60
2018-05-25T04:34:40.348Z,16.60
2018-05-25T04:37:09.582Z,16.60
2018-05-25T04:39:38.028Z,16.60
2018-05-25T04:42:06.484Z,16.70
2018-05-25T04:44:34.961Z,16.70
2018-05-25T04:47:03.419Z,16.70
2018-05-25T04:49:31.868Z,16.80
2018-05-25T04:52:00.761Z,16.80
2018-05-25T04:54:29.932Z,16.80
2018-05-25T04:56:58.398Z,16.80
2018-05-25T04:59:26.859Z,16.90
2018-05-25T05:01:55.313Z,16.90
2018-05-25T05:04:23.960Z,16.90
2018-05-25T05:06:52.417Z,16.90
2018-05-25T05:09:20.859Z,17.00
2018-05-25T05:11:49.320Z,17.00
2018-05-25T05:14:17.758Z,17.00
2018-05-25T05:16:46.225Z,17.00
2018-05-25T05:19:14.667Z,17.10
2018-05-25T05:21:43.111Z,17.10
2018-05-25T05:24:11.766Z,17.10
2018-05-25T05:26:41.273Z,17.20
2018-05-25T05:29:10.300Z,17.20
2018-05-25T05:31:38.748Z,17.20
2018-05-25T05:34:07.200Z,17.20
2018-05-25T05:36:35.646Z,17.20
2018-05-25T05:39:03.192Z,17.30
2018-05-25T05:41:32.669Z,17.30
2018-05-25T05:44:01.123Z,17.30
2018-05-25T05:46:29.580Z,17.30
2018-05-25T05:48:58.032Z,17.30
2018-05-25T05:51:26.492Z,17.40
2018-05-25T05:53:54.951Z,17.40
2018-05-25T05:56:23.411Z,17.50
2018-05-25T05:58:51.871Z,17.60
2018-05-25T06:01:20.311Z,17.70
2018-05-25T06:03:48.771Z,17.80
2018-05-25T06:06:18.620Z,17.90
2018-05-25T06:08:47.251Z,18.00
2018-05-25T06:11:15.787Z,18.10
2018-05-25T06:13:44.248Z,18.20
2018-05-25T06:16:13.456Z,18.40
2018-05-25T06:18:41.912Z,18.40
2018-05-25T06:21:10.362Z,18.60
2018-05-25T06:23:39.008Z,18.60
2018-05-25T06:26:07.475Z,18.70
2018-05-25T06:28:35.958Z,18.70
2018-05-25T06:31:04.412Z,18.90
2018-05-25T06:33:33.574Z,19.00
2018-05-25T06:36:02.036Z,19.00
2018-05-25T06:38:32.301Z,19.20
2018-05-25T06:41:01.524Z,19.30
2018-05-25T06:43:29.978Z,19.30
2018-05-25T06:45:58.423Z,19.80
2018-05-25T06:48:26.868Z,20.60
2018-05-25T06:50:55.320Z,20.90
2018-05-25T06:53:23.786Z,21.50
2018-05-25T06:55:52.256Z,21.40
2018-05-25T06:58:20.722Z,21.70
2018-05-25T07:00:49.167Z,22.30
2018-05-25T07:03:17.625Z,22.90
2018-05-25T07:05:46.084Z,23.20
2018-05-25T07:08:14.523Z,23.30
2018-05-25T07:10:42.974Z,23.00
2018-05-25T07:13:11.428Z,22.80
2018-05-25T07:15:39.916Z,22.50
2018-05-25T07:18:08.362Z,22.50
2018-05-25T07:20:39.116Z,23.00
2018-05-25T07:23:07.573Z,23.00
2018-05-25T07:25:36.023Z,23.70
2018-05-25T07:28:04.472Z,23.80
2018-05-25T07:30:32.914Z,23.90
2018-05-25T07:33:01.365Z,24.00
2018-05-25T07:35:29.812Z,24.20
2018-05-25T07:37:58.259Z,24.00
2018-05-25T07:40:27.203Z,23.60
2018-05-25T07:42:55.663Z,23.50
2018-05-25T07:45:25.452Z,23.40
2018-05-25T07:47:53.915Z,23.30
2018-05-25T07:50:22.687Z,23.50
2018-05-25T07:52:51.960Z,23.10
2018-05-25T07:55:20.439Z,23.10
2018-05-25T07:57:48.891Z,22.90
2018-05-25T08:00:17.448Z,22.80
2018-05-25T08:02:46.033Z,24.20
2018-05-25T08:05:14.499Z,25.50
2018-05-25T08:07:42.947Z,26.10
2018-05-25T09:26:09.431Z,27.70
2018-05-25T09:28:37.888Z,25.10
2018-05-25T09:31:07.127Z,25.50
2018-05-25T09:33:35.727Z,25.50
2018-05-25T09:36:04.214Z,25.60
2018-05-25T09:38:32.663Z,25.40
2018-05-25T09:41:01.129Z,25.50
2018-05-25T09:43:29.653Z,25.50
2018-05-25T09:45:58.251Z,25.80
2018-05-25T09:48:26.712Z,26.00
2018-05-25T09:50:55.379Z,25.70
2018-05-25T09:53:23.827Z,25.70
2018-05-25T09:55:52.299Z,25.80
2018-05-25T09:58:21.664Z,26.00
2018-05-25T10:00:50.826Z,26.00
2018-05-25T10:03:20.062Z,25.60
2018-05-25T10:05:48.511Z,25.60
2018-05-25T10:08:16.959Z,25.50
2018-05-25T10:10:45.409Z,25.40
2018-05-25T10:13:13.867Z,25.50
2018-05-25T10:15:42.322Z,25.80
2018-05-25T10:18:10.763Z,25.60
2018-05-25T10:20:39.211Z,25.60
2018-05-25T10:23:07.655Z,26.00
2018-05-25T10:25:36.106Z,26.20
2018-05-25T10:28:04.564Z,26.40
2018-05-25T10:30:33.642Z,26.10
2018-05-25T10:33:02.868Z,25.80
2018-05-25T10:35:31.318Z,25.80
2018-05-25T10:37:59.773Z,25.90
2018-05-25T10:40:28.456Z,25.80
2018-05-25T10:42:56.915Z,25.80
2018-05-25T10:45:25.378Z,25.80
2018-05-25T10:47:53.836Z,25.60
2018-05-25T10:50:22.292Z,25.50
2018-05-25T10:52:50.734Z,25.40
2018-05-25T10:55:19.188Z,25.50
2018-05-25T10:57:47.639Z,25.30
2018-05-25T11:00:16.096Z,25.30
2018-05-25T11:02:45.364Z,25.50
2018-05-25T11:05:13.802Z,25.10
2018-05-25T11:07:42.260Z,25.10
2018-05-25T11:10:10.709Z,25.10
2018-05-25T11:12:39.147Z,25.20
2018-05-25T11:15:07.263Z,25.50
2018-05-25T11:17:35.715Z,25.80
2018-05-25T11:20:03.503Z,25.60
2018-05-25T11:22:31.962Z,25.70
2018-05-25T11:25:00.409Z,25.60
2018-05-25T11:27:28.850Z,25.80
2018-05-25T11:29:57.291Z,25.90
2018-05-25T11:32:25.736Z,26.20
2018-05-25T11:34:53.851Z,26.10
2018-05-25T11:37:22.303Z,26.00
2018-05-25T11:39:50.757Z,26.10
2018-05-25T11:42:19.207Z,26.20
2018-05-25T11:44:48.087Z,26.20
2018-05-25T11:47:16.535Z,26.20
2018-05-25T11:49:44.970Z,26.40
2018-05-25T11:52:13.421Z,26.30
2018-05-25T11:54:41.876Z,26.20
2018-05-25T11:57:10.337Z,25.90
2018-05-25T11:59:38.788Z,25.70
2018-05-25T12:02:07.255Z,25.70
2018-05-25T12:04:35.696Z,25.90
2018-05-25T12:07:04.152Z,26.20
2018-05-25T12:09:32.604Z,26.60
2018-05-25T12:12:01.068Z,26.80
2018-05-25T12:14:29.516Z,26.80
2018-05-25T12:16:57.960Z,26.70
2018-05-25T12:19:27.170Z,26.20
2018-05-25T12:21:55.624Z,26.20
2018-05-25T12:24:24.076Z,26.00
2018-05-25T12:26:52.519Z,25.90
2018-05-25T12:29:20.971Z,25.90
2018-05-25T12:31:49.427Z,25.70
2018-05-25T12:34:18.888Z,25.30
2018-05-25T12:36:47.330Z,25.00
2018-05-25T12:39:15.792Z,24.80
2018-05-25T12:41:44.230Z,24.80
2018-05-25T12:44:13.439Z,25.10
2018-05-25T12:46:41.891Z,25.00
2018-05-25T12:49:10.338Z,25.30
2018-05-25T12:51:38.444Z,25.30
2018-05-25T12:54:06.891Z,25.30
2018-05-25T12:56:35.340Z,25.50
2018-05-25T12:59:03.783Z,25.50
2018-05-25T13:01:32.220Z,25.30
2018-05-25T13:04:00.671Z,25.00
2018-05-25T13:06:29.119Z,24.80
2018-05-25T13:08:57.559Z,24.80
2018-05-25T13:11:26.009Z,25.00
2018-05-25T13:13:55.212Z,24.60
2018-05-25T13:16:23.656Z,24.60
2018-05-25T13:18:52.872Z,24.60
2018-05-25T13:21:21.322Z,24.60
2018-05-25T13:23:49.763Z,24.60
2018-05-25T13:26:18.203Z,24.70
2018-05-25T13:28:46.656Z,24.70
2018-05-25T13:31:15.105Z,24.70
2018-05-25T13:33:43.739Z,24.60
2018-05-25T13:36:11.847Z,24.60
2018-05-25T13:38:41.068Z,24.80
2018-05-25T13:41:09.529Z,24.80
2018-05-25T13:43:37.981Z,24.80
2018-05-25T13:46:06.573Z,24.70
2018-05-25T13:48:35.023Z,24.80
2018-05-25T13:51:03.467Z,24.80
2018-05-25T13:53:31.919Z,24.90
2018-05-25T13:56:02.007Z,25.00
2018-05-25T13:58:30.521Z,24.80
2018-05-25T14:00:59.109Z,24.70
2018-05-25T14:03:27.568Z,24.80
2018-05-25T14:05:56.020Z,25.10
2018-05-25T14:08:24.478Z,25.30
2018-05-25T14:10:52.922Z,25.60
2018-05-25T14:13:21.380Z,25.80
2018-05-25T14:15:49.828Z,26.00
2018-05-25T14:18:18.271Z,25.90
2018-05-25T14:20:47.196Z,25.40
2018-05-25T14:23:16.400Z,25.10
2018-05-25T14:25:44.839Z,25.10
2018-05-25T14:28:13.284Z,24.80
2018-05-25T14:30:41.756Z,24.60
2018-05-25T14:33:09.863Z,24.40
2018-05-25T14:35:38.353Z,24.20
2018-05-25T14:38:06.800Z,24.20
2018-05-25T14:40:34.911Z,24.20
2018-05-25T14:43:03.360Z,24.20
2018-05-25T14:45:31.808Z,24.20
2018-05-25T14:48:00.264Z,24.20
2018-05-25T14:50:28.925Z,24.20
2018-05-25T14:52:57.383Z,24.30
2018-05-25T14:55:25.831Z,24.40
2018-05-25T14:57:54.291Z,24.50
2018-05-25T15:00:22.766Z,24.50
2018-05-25T15:02:52.524Z,24.50
2018-05-25T15:05:20.989Z,24.60
2018-05-25T15:07:49.446Z,24.70
2018-05-25T15:10:17.887Z,24.70
2018-05-25T15:12:46.344Z,24.70
2018-05-25T15:15:14.798Z,24.80
2018-05-25T15:17:43.235Z,24.90
2018-05-25T15:20:11.684Z,24.80
2018-05-25T15:22:40.186Z,24.70
2018-05-25T15:25:08.632Z,24.60
2018-05-25T15:27:37.087Z,24.60
2018-05-25T15:30:05.544Z,24.60
2018-05-25T15:32:34.072Z,24.60
2018-05-25T15:35:02.625Z,24.40
2018-05-25T15:37:31.068Z,24.40
2018-05-25T15:40:00.283Z,24.50
2018-05-25T15:42:28.733Z,24.40
2018-05-25T15:44:57.186Z,24.40
2018-05-25T15:47:25.628Z,24.40
2018-05-25T15:49:54.080Z,24.30
2018-05-25T15:52:22.527Z,24.20
2018-05-25T15:54:50.975Z,24.00
2018-05-25T15:57:19.431Z,23.90
2018-05-25T15:59:48.640Z,23.90
2018-05-25T16:02:17.119Z,23.90
2018-05-25T16:04:45.743Z,24.00
2018-05-25T16:07:14.184Z,24.00
2018-05-25T16:09:42.655Z,23.90
2018-05-25T16:12:11.101Z,24.00
2018-05-25T16:14:39.559Z,24.20
2018-05-25T16:17:08.008Z,24.30
2018-05-25T16:19:36.471Z,24.30
2018-05-25T16:22:04.916Z,24.40
2018-05-25T16:24:33.376Z,24.40
2018-05-25T16:27:01.842Z,24.30
2018-05-25T16:29:30.288Z,24.30
2018-05-25T16:31:58.727Z,24.10
2018-05-25T16:34:27.176Z,24.10
2018-05-25T16:36:55.623Z,24.00
2018-05-25T16:39:24.080Z,24.00
2018-05-25T16:41:52.524Z,24.10
2018-05-25T16:44:20.963Z,24.20
2018-05-25T16:46:49.529Z,24.30
2018-05-25T16:49:17.979Z,24.30
2018-05-25T16:51:46.424Z,24.30
2018-05-25T16:54:14.875Z,24.30
2018-05-25T16:56:43.320Z,24.40
2018-05-25T16:59:11.795Z,24.40
2018-05-25T17:01:40.404Z,24.40
2018-05-25T17:04:08.849Z,24.30
2018-05-25T17:06:37.302Z,24.40
2018-05-25T17:09:06.172Z,24.40
2018-05-25T17:11:34.618Z,24.40
2018-05-25T17:14:03.080Z,24.30
2018-05-25T17:16:31.416Z,24.20
2018-05-25T17:18:59.860Z,24.20
2018-05-25T17:21:29.085Z,23.90
2018-05-25T17:23:57.531Z,23.90
2018-05-25T17:26:25.976Z,23.80
2018-05-25T17:28:54.410Z,23.80
2018-05-25T17:31:23.620Z,23.70
2018-05-25T17:33:52.075Z,23.70
2018-05-25T17:36:20.519Z,23.60
2018-05-25T17:38:48.969Z,23.50
2018-05-25T17:41:17.403Z,23.40
2018-05-25T17:43:45.860Z,23.30
2018-05-25T17:46:14.299Z,23.30
2018-05-25T17:48:42.756Z,23.20
2018-05-25T17:51:11.196Z,23.20
2018-05-25T17:53:39.642Z,23.20
2018-05-25T17:56:08.857Z,23.20
2018-05-25T17:58:37.295Z,23.10
2018-05-25T18:01:05.990Z,23.20
2018-05-25T18:03:34.439Z,23.10
2018-05-25T18:06:02.884Z,23.10
2018-05-25T18:08:31.314Z,23.10
2018-05-25T18:10:59.756Z,23.00
2018-05-25T18:13:28.199Z,23.00
2018-05-25T18:15:56.650Z,23.00
2018-05-25T18:18:25.868Z,23.00
2018-05-25T18:20:53.984Z,23.00
2018-05-25T18:23:23.189Z,23.00
2018-05-25T18:25:51.659Z,22.90
2018-05-25T18:28:20.104Z,23.00
2018-05-25T18:30:49.348Z,23.00
2018-05-25T18:33:17.798Z,23.00
2018-05-25T18:35:46.240Z,23.00
2018-05-25T18:38:14.689Z,22.90
2018-05-25T18:40:43.144Z,22.90
2018-05-25T18:43:11.592Z,22.80
2018-05-25T18:45:40.040Z,22.80
2018-05-25T18:48:08.489Z,22.80
2018-05-25T18:50:36.936Z,22.70
2018-05-25T18:53:05.376Z,22.70
2018-05-25T18:55:33.822Z,22.60
2018-05-25T18:58:02.272Z,22.60
2018-05-25T19:00:30.716Z,22.60
2018-05-25T19:02:59.922Z,22.40
2018-05-25T19:05:28.389Z,22.40
2018-05-25T19:07:56.840Z,22.40
2018-05-25T19:10:25.915Z,22.30
2018-05-25T19:12:54.366Z,22.20
2018-05-25T19:15:22.812Z,22.20
2018-05-25T19:17:50.929Z,22.20
2018-05-25T19:20:19.399Z,22.10
2018-05-25T19:22:47.849Z,22.00
2018-05-25T19:25:16.308Z,21.90
2018-05-25T19:27:44.761Z,21.80
2018-05-25T19:30:13.195Z,21.70
2018-05-25T19:32:41.644Z,21.70
2018-05-25T19:35:10.103Z,21.60
2018-05-25T19:37:38.546Z,21.60
2018-05-25T19:40:06.660Z,21.60
2018-05-25T19:42:35.118Z,21.50
2018-05-25T19:45:03.560Z,21.40
2018-05-25T19:47:31.995Z,21.40
2018-05-25T19:50:00.439Z,21.40
2018-05-25T19:52:28.897Z,21.30
2018-05-25T19:54:57.343Z,21.20
2018-05-25T19:57:25.796Z,21.20
2018-05-25T19:59:54.235Z,21.10
2018-05-25T20:02:22.683Z,21.00
2018-05-25T20:04:51.128Z,21.00
2018-05-25T20:07:19.604Z,21.00
2018-05-25T20:09:48.064Z,20.90
2018-05-25T20:12:16.549Z,20.90
2018-05-25T20:14:44.991Z,20.80
2018-05-25T20:17:14.205Z,20.80
2018-05-25T20:19:43.105Z,20.80
2018-05-25T20:22:11.575Z,20.70
2018-05-25T20:24:40.022Z,20.60
2018-05-25T20:27:08.484Z,20.60
2018-05-25T20:29:36.939Z,20.50
2018-05-25T20:32:05.396Z,20.50
2018-05-25T20:34:33.850Z,20.40
2018-05-25T20:37:02.338Z,20.40
2018-05-25T20:39:30.808Z,20.30
2018-05-25T20:41:59.274Z,20.20
2018-05-25T20:44:27.737Z,20.20
2018-05-25T20:46:56.183Z,20.20
2018-05-25T20:49:24.648Z,20.20
2018-05-25T20:51:53.093Z,20.10
2018-05-25T20:54:22.350Z,20.00
2018-05-25T20:56:50.952Z,20.00
2018-05-25T20:59:19.408Z,20.00
2018-05-25T21:01:47.874Z,20.00
2018-05-25T21:04:17.100Z,19.90
2018-05-25T21:06:45.559Z,19.90
2018-05-25T21:09:14.015Z,19.90
2018-05-25T21:11:42.462Z,19.90
2018-05-25T21:14:11.111Z,19.80
2018-05-25T21:16:39.560Z,19.80
2018-05-25T21:19:08.017Z,19.80
2018-05-25T21:21:36.475Z,19.70
2018-05-25T21:24:04.712Z,19.70
2018-05-25T21:26:33.160Z,19.70
2018-05-25T21:29:01.611Z,19.70
2018-05-25T21:31:30.449Z,19.70
2018-05-25T21:33:58.923Z,19.70
2018-05-25T21:36:27.387Z,19.70
2018-05-25T21:38:55.840Z,19.70
2018-05-25T21:41:24.291Z,19.60
2018-05-25T21:43:52.751Z,19.60
2018-05-25T21:46:21.959Z,19.60
2018-05-25T21:48:50.415Z,19.60
2018-05-25T21:51:18.878Z,19.60
2018-05-25T21:53:47.331Z,19.60
2018-05-25T21:56:15.780Z,19.60
2018-05-25T21:58:44.232Z,19.60
2018-05-25T22:01:12.693Z,19.60
2018-05-25T22:03:41.159Z,19.60
2018-05-25T22:06:09.620Z,19.60
2018-05-25T22:08:38.207Z,19.60
2018-05-25T22:11:06.663Z,19.50
2018-05-25T22:13:35.125Z,19.50
2018-05-25T22:16:03.576Z,19.50
2018-05-25T22:18:32.026Z,19.50
2018-05-25T22:21:00.471Z,19.40
2018-05-25T22:23:28.923Z,19.40
2018-05-25T22:25:58.163Z,19.30
2018-05-25T22:28:26.606Z,19.30
2018-05-25T22:30:55.052Z,19.30
2018-05-25T22:33:23.524Z,19.30
2018-05-25T22:35:52.172Z,19.20
2018-05-25T22:38:20.646Z,19.20
2018-05-25T22:40:49.100Z,19.20
2018-05-25T22:43:28.729Z,19.10
2018-05-25T22:46:08.716Z,19.10
2018-05-25T22:48:49.081Z,19.00
2018-05-25T22:51:28.561Z,19.00
2018-05-25T22:54:01.129Z,19.00
2018-05-25T22:56:29.576Z,18.90
2018-05-25T22:58:58.025Z,18.90
2018-05-25T23:01:26.475Z,18.90
2018-05-25T23:03:54.919Z,18.90
2018-05-25T23:06:23.364Z,18.90
2018-05-25T23:08:52.603Z,18.80
2018-05-25T23:11:21.053Z,18.80
2018-05-25T23:13:49.531Z,18.80
2018-05-25T23:16:17.980Z,18.80
2018-05-25T23:18:46.442Z,18.80
2018-05-25T23:21:14.880Z,18.80
2018-05-25T23:23:43.360Z,18.80
2018-05-25T23:26:11.826Z,18.80
2018-05-25T23:28:40.267Z,18.70
2018-05-25T23:31:08.717Z,18.70
2018-05-25T23:33:37.169Z,18.70
2018-05-25T23:36:06.374Z,18.70
2018-05-25T23:38:34.825Z,18.70
2018-05-25T23:41:03.272Z,18.60
2018-05-25T23:43:31.735Z,18.60
2018-05-25T23:46:00.192Z,18.60
2018-05-25T23:48:28.639Z,18.60
2018-05-25T23:50:57.083Z,18.60
2018-05-25T23:53:25.536Z,18.60
2018-05-25T23:55:53.758Z,18.50
2018-05-25T23:58:22.198Z,18.50
